createdAt,value
2022-08-25T00:00:24.572Z,100436.25
2022-08-25T00:01:44.559Z,100446.88
2022-08-25T00:02:40.675Z,100438.22
2022-08-25T00:03:45.572Z,100442.44
2022-08-25T00:04:41.516Z,100443.72
2022-08-25T00:05:43.577Z,100439.69
2022-08-25T00:06:38.535Z,100440.53
2022-08-25T00:07:32.533Z,100430.25
2022-08-25T00:08:26.534Z,100429.34
2022-08-25T00:09:07.551Z,100436.53
2022-08-25T00:09:47.626Z,100424.75
2022-08-25T00:10:28.517Z,100434.94
2022-08-25T00:11:08.669Z,100440.44
2022-08-25T00:11:49.515Z,100436.63
2022-08-25T00:12:29.592Z,100441.34
2022-08-25T00:13:11.553Z,100431.50
2022-08-25T00:13:54.673Z,100439.84
2022-08-25T00:14:41.550Z,100425.59
2022-08-25T00:15:22.832Z,100446.41
2022-08-25T00:16:03.557Z,100429.03
2022-08-25T00:16:43.623Z,100444.50
2022-08-25T00:17:23.527Z,100439.44
2022-08-25T00:18:05.359Z,100442.63
2022-08-25T00:19:00.523Z,100448.25
2022-08-25T00:19:51.557Z,100430.03
2022-08-25T00:20:49.017Z,100451.78
2022-08-25T00:21:43.535Z,100446.19
2022-08-25T00:22:37.508Z,100451.25
2022-08-25T00:23:32.504Z,100451.91
2022-08-25T00:24:29.529Z,100460.19
2022-08-25T00:25:16.554Z,100445.19
2022-08-25T00:25:50.922Z,100446.03
2022-08-25T00:26:37.514Z,100457.75
2022-08-25T00:27:12.641Z,100460.53
2022-08-25T00:27:59.601Z,100458.00
2022-08-25T00:28:33.868Z,100452.72
2022-08-25T00:29:21.513Z,100458.25
2022-08-25T00:29:55.571Z,100452.53
2022-08-25T00:30:36.533Z,100452.75
2022-08-25T00:31:23.662Z,100464.00
2022-08-25T00:32:19.477Z,100457.22
2022-08-25T00:32:59.640Z,100461.22
2022-08-25T00:33:40.512Z,100457.22
2022-08-25T00:34:36.646Z,100454.22
2022-08-25T00:35:17.502Z,100462.94
2022-08-25T00:35:58.562Z,100467.56
2022-08-25T00:36:32.655Z,100463.72
2022-08-25T00:37:19.496Z,100446.97
2022-08-25T00:37:53.621Z,100467.53
2022-08-25T00:38:40.497Z,100457.53
2022-08-25T00:39:17.631Z,100464.31
2022-08-25T00:39:58.713Z,100459.88
2022-08-25T00:40:39.508Z,100449.16
2022-08-25T00:41:22.621Z,100460.19
2022-08-25T00:41:57.931Z,100451.06
2022-08-25T00:42:45.504Z,100448.44
2022-08-25T00:43:19.560Z,100441.28
2022-08-25T00:44:12.491Z,100456.00
2022-08-25T00:44:46.880Z,100455.75
2022-08-25T00:45:34.516Z,100446.44
2022-08-25T00:46:09.911Z,100443.03
2022-08-25T00:46:56.533Z,100448.53
2022-08-25T00:47:31.598Z,100446.19
2022-08-25T00:48:05.959Z,100442.59
2022-08-25T00:48:48.501Z,100441.50
2022-08-25T00:49:58.946Z,100456.78
2022-08-25T00:50:34.774Z,100455.75
2022-08-25T00:51:18.514Z,100450.44
2022-08-25T00:52:13.540Z,100451.53
2022-08-25T00:52:53.974Z,100451.06
2022-08-25T00:53:42.528Z,100452.34
2022-08-25T00:54:24.728Z,100458.31
2022-08-25T00:55:23.471Z,100456.28
2022-08-25T00:55:58.883Z,100454.00
2022-08-25T00:56:45.520Z,100437.34
2022-08-25T00:57:35.544Z,100458.97
2022-08-25T00:58:31.243Z,100451.00
2022-08-25T00:59:12.502Z,100459.50
2022-08-25T00:59:52.613Z,100447.63
2022-08-25T01:00:46.480Z,100455.75
2022-08-25T01:01:27.660Z,100457.03
2022-08-25T01:02:10.219Z,100451.00
2022-08-25T01:03:03.640Z,100465.41
2022-08-25T01:03:38.236Z,100436.03
2022-08-25T01:04:25.484Z,100461.16
2022-08-25T01:04:59.635Z,100462.84
2022-08-25T01:05:47.489Z,100446.69
2022-08-25T01:06:21.547Z,100460.09
2022-08-25T01:07:10.503Z,100462.41
2022-08-25T01:07:52.654Z,100450.28
2022-08-25T01:08:40.520Z,100455.97
2022-08-25T01:09:14.572Z,100451.25
2022-08-25T01:09:50.750Z,100454.06
2022-08-25T01:10:32.485Z,100454.50
2022-08-25T01:11:13.573Z,100450.34
2022-08-25T01:11:47.717Z,100451.75
2022-08-25T01:12:28.482Z,100461.78
2022-08-25T01:13:23.689Z,100448.63
2022-08-25T01:14:09.499Z,100454.69
2022-08-25T01:14:51.566Z,100459.34
2022-08-25T01:15:31.536Z,100454.84
2022-08-25T01:16:12.573Z,100463.34
2022-08-25T01:16:53.923Z,100459.34
2022-08-25T01:18:06.695Z,100468.66
2022-08-25T01:18:58.475Z,100467.34
2022-08-25T01:19:40.505Z,100466.81
2022-08-25T01:20:15.594Z,100463.19
2022-08-25T01:20:57.296Z,100462.97
2022-08-25T01:21:59.488Z,100450.22
2022-08-25T01:22:55.206Z,100459.59
2022-08-25T01:23:49.452Z,100455.34
2022-08-25T01:24:58.504Z,100457.47
2022-08-25T01:26:45.462Z,100468.16
2022-08-25T01:27:39.492Z,100469.69
2022-08-25T01:28:34.484Z,100468.03
2022-08-25T01:29:28.491Z,100468.72
2022-08-25T01:30:16.485Z,100459.53
2022-08-25T01:30:50.625Z,100473.84
2022-08-25T01:31:38.533Z,100470.91
2022-08-25T01:32:19.575Z,100480.78
2022-08-25T01:33:13.472Z,100476.59
2022-08-25T01:33:47.535Z,100468.28
2022-08-25T01:34:39.454Z,100467.56
2022-08-25T01:35:14.233Z,100470.25
2022-08-25T01:35:55.495Z,100467.31
2022-08-25T01:36:36.587Z,100480.94
2022-08-25T01:37:20.454Z,100477.25
2022-08-25T01:38:00.633Z,100483.06
2022-08-25T01:38:41.498Z,100477.19
2022-08-25T01:39:22.569Z,100477.72
2022-08-25T01:40:02.506Z,100482.03
2022-08-25T01:40:45.560Z,100483.75
2022-08-25T01:41:52.534Z,100492.63
2022-08-25T01:43:12.991Z,100472.47
2022-08-25T01:43:54.424Z,100481.78
2022-08-25T01:44:35.843Z,100503.09
2022-08-25T01:45:16.489Z,100485.06
2022-08-25T01:45:58.097Z,100480.34
2022-08-25T01:46:40.452Z,100472.69
2022-08-25T01:47:21.473Z,100470.53
2022-08-25T01:47:55.545Z,100472.69
2022-08-25T01:48:43.444Z,100457.56
2022-08-25T01:49:17.494Z,100482.03
2022-08-25T01:50:04.465Z,100476.53
2022-08-25T01:50:38.548Z,100477.66
2022-08-25T01:51:32.506Z,100475.34
2022-08-25T01:52:53.484Z,100479.94
2022-08-25T01:53:47.459Z,100460.06
2022-08-25T01:54:41.476Z,100470.03
2022-08-25T01:55:36.482Z,100476.81
2022-08-25T01:56:31.436Z,100473.25
2022-08-25T01:57:25.467Z,100470.31
2022-08-25T01:58:12.482Z,100476.09
2022-08-25T01:58:52.527Z,100473.09
2022-08-25T01:59:39.466Z,100472.03
2022-08-25T02:00:16.528Z,100475.38
2022-08-25T02:01:08.470Z,100471.16
2022-08-25T02:01:42.646Z,100460.31
2022-08-25T02:02:29.468Z,100463.69
2022-08-25T02:03:10.640Z,100464.34
2022-08-25T02:04:02.480Z,100471.09
2022-08-25T02:04:44.706Z,100469.19
2022-08-25T02:05:25.456Z,100467.50
2022-08-25T02:06:06.533Z,100467.25
2022-08-25T02:06:48.436Z,100463.13
2022-08-25T02:07:28.506Z,100468.88
2022-08-25T02:08:09.428Z,100476.53
2022-08-25T02:08:50.492Z,100472.75
2022-08-25T02:09:31.468Z,100460.38
2022-08-25T02:10:13.762Z,100473.59
2022-08-25T02:10:54.445Z,100468.03
2022-08-25T02:11:35.853Z,100474.16
2022-08-25T02:12:16.435Z,100475.59
2022-08-25T02:12:56.556Z,100474.38
2022-08-25T02:13:37.443Z,100455.59
2022-08-25T02:14:20.057Z,100466.88
2022-08-25T02:15:00.450Z,100475.38
2022-08-25T02:15:40.478Z,100465.31
2022-08-25T02:16:29.540Z,100474.31
2022-08-25T02:17:11.553Z,100477.03
2022-08-25T02:17:51.441Z,100454.69
2022-08-25T02:18:31.505Z,100475.03
2022-08-25T02:19:15.424Z,100462.31
2022-08-25T02:19:57.037Z,100479.66
2022-08-25T02:20:37.434Z,100477.94
2022-08-25T02:21:17.592Z,100478.16
2022-08-25T02:21:58.446Z,100478.63
2022-08-25T02:22:38.527Z,100480.97
2022-08-25T02:23:21.430Z,100469.84
2022-08-25T02:24:02.509Z,100477.78
2022-08-25T02:24:43.461Z,100473.44
2022-08-25T02:25:25.608Z,100481.09
2022-08-25T02:26:05.453Z,100484.00
2022-08-25T02:26:46.504Z,100487.31
2022-08-25T02:27:26.611Z,100495.41
2022-08-25T02:28:08.537Z,100489.41
2022-08-25T02:28:50.481Z,100481.38
2022-08-25T02:29:30.493Z,100487.72
2022-08-25T02:30:12.423Z,100489.41
2022-08-25T02:30:53.032Z,100478.63
2022-08-25T02:31:42.438Z,100492.34
2022-08-25T02:32:22.488Z,100488.56
2022-08-25T02:33:04.405Z,100484.03
2022-08-25T02:33:45.478Z,100488.09
2022-08-25T02:34:26.432Z,100490.63
2022-08-25T02:35:06.503Z,100486.34
2022-08-25T02:35:47.434Z,100479.00
2022-08-25T02:36:28.502Z,100477.03
2022-08-25T02:37:08.454Z,100485.13
2022-08-25T02:37:48.498Z,100490.00
2022-08-25T02:38:28.415Z,100485.53
2022-08-25T02:39:10.499Z,100471.75
2022-08-25T02:39:50.466Z,100485.94
2022-08-25T02:40:30.556Z,100472.72
2022-08-25T02:41:19.416Z,100469.09
2022-08-25T02:41:59.942Z,100469.06
2022-08-25T02:42:40.525Z,100470.13
2022-08-25T02:43:23.490Z,100481.75
2022-08-25T02:44:04.432Z,100474.63
2022-08-25T02:44:44.538Z,100469.53
2022-08-25T02:45:25.415Z,100476.03
2022-08-25T02:46:19.472Z,100462.91
2022-08-25T02:47:13.401Z,100476.66
2022-08-25T02:48:01.497Z,100480.38
2022-08-25T02:48:35.814Z,100473.75
2022-08-25T02:49:22.429Z,100466.38
2022-08-25T02:49:56.665Z,100474.09
2022-08-25T02:50:43.431Z,100481.63
2022-08-25T02:51:17.476Z,100472.97
2022-08-25T02:52:07.416Z,100475.72
2022-08-25T02:52:42.561Z,100468.94
2022-08-25T02:53:22.436Z,100471.84
2022-08-25T02:54:04.516Z,100473.97
2022-08-25T02:54:45.382Z,100464.22
2022-08-25T02:55:26.610Z,100468.09
2022-08-25T02:56:07.414Z,100480.00
2022-08-25T02:56:48.504Z,100471.28
2022-08-25T02:57:28.411Z,100471.69
2022-08-25T02:58:09.099Z,100465.13
2022-08-25T02:58:52.429Z,100467.03
2022-08-25T02:59:32.512Z,100469.72
2022-08-25T03:00:14.398Z,100453.81
2022-08-25T03:00:56.572Z,100472.56
2022-08-25T03:01:39.429Z,100459.69
2022-08-25T03:02:20.474Z,100467.56
2022-08-25T03:03:00.492Z,100456.09
2022-08-25T03:03:41.548Z,100471.84
2022-08-25T03:04:24.469Z,100458.06
2022-08-25T03:05:19.397Z,100473.25
2022-08-25T03:06:14.393Z,100469.38
2022-08-25T03:07:08.398Z,100459.50
2022-08-25T03:08:02.511Z,100466.56
2022-08-25T03:08:57.410Z,100457.84
2022-08-25T03:09:44.420Z,100476.13
2022-08-25T03:10:23.669Z,100469.72
2022-08-25T03:11:12.403Z,100477.00
2022-08-25T03:11:47.363Z,100467.50
2022-08-25T03:12:34.377Z,100458.38
2022-08-25T03:13:08.455Z,100465.25
2022-08-25T03:13:57.374Z,100451.25
2022-08-25T03:14:31.444Z,100464.47
2022-08-25T03:15:13.211Z,100462.13
2022-08-25T03:15:54.304Z,100456.88
2022-08-25T03:16:35.446Z,100463.78
2022-08-25T03:17:16.515Z,100454.34
2022-08-25T03:17:57.392Z,100452.53
2022-08-25T03:18:41.447Z,100469.63
2022-08-25T03:19:23.394Z,100467.09
2022-08-25T03:20:03.461Z,100458.19
2022-08-25T03:20:45.389Z,100470.88
2022-08-25T03:21:25.447Z,100460.69
2022-08-25T03:22:06.404Z,100451.53
2022-08-25T03:22:46.460Z,100456.03
2022-08-25T03:23:27.386Z,100461.53
2022-08-25T03:24:07.467Z,100456.16
2022-08-25T03:24:48.399Z,100463.00
2022-08-25T03:25:53.411Z,100467.56
2022-08-25T03:27:00.358Z,100461.53
2022-08-25T03:27:55.385Z,100454.00
2022-08-25T03:28:49.420Z,100458.25
2022-08-25T03:29:47.387Z,100468.25
2022-08-25T03:30:42.433Z,100461.59
2022-08-25T03:31:23.467Z,100452.53
2022-08-25T03:32:05.237Z,100450.13
2022-08-25T03:32:46.383Z,100458.47
2022-08-25T03:33:27.434Z,100455.97
2022-08-25T03:34:08.362Z,100458.03
2022-08-25T03:34:48.492Z,100453.50
2022-08-25T03:35:29.368Z,100442.50
2022-08-25T03:36:13.543Z,100451.78
2022-08-25T03:36:57.417Z,100457.53
2022-08-25T03:37:37.476Z,100464.00
2022-08-25T03:38:18.378Z,100469.28
2022-08-25T03:39:00.595Z,100469.88
2022-08-25T03:39:41.364Z,100465.63
2022-08-25T03:40:23.212Z,100466.03
2022-08-25T03:41:04.358Z,100470.75
2022-08-25T03:41:44.544Z,100460.97
2022-08-25T03:42:24.418Z,100466.09
2022-08-25T03:43:04.456Z,100459.00
2022-08-25T03:43:48.104Z,100464.78
2022-08-25T03:44:29.453Z,100457.97
2022-08-25T03:45:11.348Z,100455.13
2022-08-25T03:45:52.477Z,100449.44
2022-08-25T03:46:40.370Z,100454.56
2022-08-25T03:47:20.428Z,100461.09
2022-08-25T03:48:01.508Z,100464.28
2022-08-25T03:48:41.487Z,100456.56
2022-08-25T03:49:29.406Z,100468.03
2022-08-25T03:50:13.433Z,100467.16
2022-08-25T03:50:56.383Z,100478.72
2022-08-25T03:51:41.548Z,100471.47
2022-08-25T03:52:23.365Z,100482.75
2022-08-25T03:53:11.382Z,100465.25
2022-08-25T03:54:07.356Z,100469.75
2022-08-25T03:55:01.373Z,100467.09
2022-08-25T03:55:55.416Z,100481.94
2022-08-25T03:56:50.372Z,100468.78
2022-08-25T03:57:45.368Z,100474.91
2022-08-25T03:58:32.389Z,100473.94
2022-08-25T03:59:09.994Z,100480.53
2022-08-25T03:59:59.348Z,100488.78
2022-08-25T04:00:33.435Z,100462.59
2022-08-25T04:01:21.425Z,100476.41
2022-08-25T04:01:57.499Z,100481.59
2022-08-25T04:02:45.432Z,100472.56
2022-08-25T04:03:26.984Z,100483.19
2022-08-25T04:04:07.398Z,100485.53
2022-08-25T04:04:47.445Z,100480.72
2022-08-25T04:05:28.352Z,100495.09
2022-08-25T04:06:10.408Z,100486.00
2022-08-25T04:06:51.333Z,100494.44
2022-08-25T04:07:31.451Z,100495.47
2022-08-25T04:08:14.367Z,100483.06
2022-08-25T04:08:54.470Z,100489.59
2022-08-25T04:09:36.908Z,100483.97
2022-08-25T04:10:17.419Z,100484.47
2022-08-25T04:10:57.352Z,100483.97
2022-08-25T04:11:37.393Z,100477.59
2022-08-25T04:12:17.351Z,100486.00
2022-08-25T04:12:59.449Z,100496.78
2022-08-25T04:13:40.318Z,100479.13
2022-08-25T04:14:21.140Z,100492.00
2022-08-25T04:15:01.450Z,100491.44
2022-08-25T04:15:42.413Z,100475.13
2022-08-25T04:16:28.421Z,100476.91
2022-08-25T04:17:08.582Z,100484.56
2022-08-25T04:17:48.348Z,100498.41
2022-08-25T04:18:31.425Z,100492.06
2022-08-25T04:19:16.328Z,100495.88
2022-08-25T04:19:57.285Z,100490.56
2022-08-25T04:20:37.381Z,100495.03
2022-08-25T04:21:18.411Z,100492.66
2022-08-25T04:21:59.356Z,100493.50
2022-08-25T04:22:39.441Z,100491.59
2022-08-25T04:23:25.357Z,100497.09
2022-08-25T04:24:06.478Z,100498.63
2022-08-25T04:24:47.344Z,100499.47
2022-08-25T04:25:28.429Z,100499.19
2022-08-25T04:26:09.361Z,100496.56
2022-08-25T04:26:53.717Z,100490.22
2022-08-25T04:27:34.338Z,100495.53
2022-08-25T04:28:16.416Z,100499.56
2022-08-25T04:28:57.354Z,100499.13
2022-08-25T04:29:38.460Z,100499.97
2022-08-25T04:30:19.332Z,100492.84
2022-08-25T04:30:59.430Z,100501.94
2022-08-25T04:31:39.393Z,100494.81
2022-08-25T04:32:19.856Z,100502.00
2022-08-25T04:33:00.321Z,100493.13
2022-08-25T04:33:42.437Z,100491.16
2022-08-25T04:34:31.129Z,100483.22
2022-08-25T04:35:12.393Z,100494.41
2022-08-25T04:35:56.322Z,100481.31
2022-08-25T04:36:36.421Z,100491.81
2022-08-25T04:37:17.342Z,100495.88
2022-08-25T04:37:57.669Z,100477.25
2022-08-25T04:38:39.330Z,100492.72
2022-08-25T04:39:20.756Z,100500.44
2022-08-25T04:40:01.388Z,100483.91
2022-08-25T04:40:42.376Z,100496.56
2022-08-25T04:41:27.318Z,100479.69
2022-08-25T04:42:08.389Z,100485.59
2022-08-25T04:42:48.361Z,100494.53
2022-08-25T04:43:28.392Z,100490.88
2022-08-25T04:44:10.324Z,100496.09
2022-08-25T04:44:50.374Z,100493.34
2022-08-25T04:45:30.333Z,100490.59
2022-08-25T04:46:26.392Z,100495.53
2022-08-25T04:47:07.320Z,100492.81
2022-08-25T04:47:49.685Z,100482.75
2022-08-25T04:48:33.402Z,100492.56
2022-08-25T04:49:13.444Z,100487.94
2022-08-25T04:49:54.340Z,100490.22
2022-08-25T04:50:34.379Z,100476.34
2022-08-25T04:51:17.299Z,100479.81
2022-08-25T04:51:58.440Z,100480.78
2022-08-25T04:52:38.319Z,100489.69
2022-08-25T04:53:21.532Z,100490.22
2022-08-25T04:54:02.429Z,100487.28
2022-08-25T04:54:42.398Z,100479.56
2022-08-25T04:55:22.297Z,100484.56
2022-08-25T04:56:03.988Z,100491.25
2022-08-25T04:56:47.302Z,100495.97
2022-08-25T04:57:28.400Z,100483.09
2022-08-25T04:58:08.320Z,100486.31
2022-08-25T04:58:54.387Z,100494.19
2022-08-25T04:59:35.368Z,100489.31
2022-08-25T05:00:18.086Z,100487.63
2022-08-25T05:00:58.384Z,100478.81
2022-08-25T05:01:39.411Z,100485.66
2022-08-25T05:02:19.324Z,100485.19
2022-08-25T05:03:00.370Z,100473.44
2022-08-25T05:03:48.332Z,100459.75
2022-08-25T05:04:28.067Z,100475.72
2022-08-25T05:05:10.339Z,100465.25
2022-08-25T05:05:50.364Z,100474.97
2022-08-25T05:06:31.310Z,100482.66
2022-08-25T05:07:12.418Z,100461.31
2022-08-25T05:07:54.313Z,100471.66
2022-08-25T05:08:34.403Z,100478.47
2022-08-25T05:09:15.361Z,100474.19
2022-08-25T05:10:00.384Z,100475.81
2022-08-25T05:10:41.349Z,100480.00
2022-08-25T05:11:24.383Z,100478.00
2022-08-25T05:12:06.280Z,100472.31
2022-08-25T05:12:46.459Z,100481.88
2022-08-25T05:13:28.309Z,100476.75
2022-08-25T05:14:11.518Z,100478.28
2022-08-25T05:14:52.314Z,100468.63
2022-08-25T05:15:57.342Z,100479.91
2022-08-25T05:16:54.286Z,100474.25
2022-08-25T05:17:50.647Z,100479.31
2022-08-25T05:18:48.277Z,100487.63
2022-08-25T05:19:42.328Z,100482.06
2022-08-25T05:20:37.311Z,100486.56
2022-08-25T05:21:22.342Z,100482.34
2022-08-25T05:22:02.397Z,100485.72
2022-08-25T05:22:42.289Z,100481.34
2022-08-25T05:23:23.343Z,100462.22
2022-08-25T05:24:05.283Z,100473.91
2022-08-25T05:24:45.362Z,100490.38
2022-08-25T05:25:26.290Z,100475.31
2022-08-25T05:26:19.597Z,100474.19
2022-08-25T05:27:01.351Z,100482.66
2022-08-25T05:27:42.485Z,100475.03
2022-08-25T05:28:23.352Z,100481.38
2022-08-25T05:29:05.588Z,100479.75
2022-08-25T05:29:46.294Z,100483.50
2022-08-25T05:30:26.368Z,100487.09
2022-08-25T05:31:09.326Z,100477.16
2022-08-25T05:31:50.739Z,100479.91
2022-08-25T05:32:31.321Z,100491.16
2022-08-25T05:33:11.346Z,100479.25
2022-08-25T05:33:52.277Z,100470.75
2022-08-25T05:34:32.432Z,100483.97
2022-08-25T05:35:14.266Z,100481.59
2022-08-25T05:35:54.365Z,100478.19
2022-08-25T05:36:36.269Z,100471.59
2022-08-25T05:37:16.327Z,100488.50
2022-08-25T05:37:56.289Z,100485.69
2022-08-25T05:38:37.772Z,100481.25
2022-08-25T05:39:18.308Z,100479.25
2022-08-25T05:39:58.724Z,100475.81
2022-08-25T05:40:39.275Z,100480.00
2022-08-25T05:41:24.372Z,100480.94
2022-08-25T05:42:04.277Z,100479.97
2022-08-25T05:42:44.382Z,100481.00
2022-08-25T05:43:25.291Z,100475.53
2022-08-25T05:44:05.350Z,100470.47
2022-08-25T05:44:46.266Z,100468.25
2022-08-25T05:45:26.374Z,100473.13
2022-08-25T05:46:07.341Z,100467.16
2022-08-25T05:46:47.356Z,100467.63
2022-08-25T05:47:28.358Z,100476.44
2022-08-25T05:48:09.420Z,100465.72
2022-08-25T05:48:49.378Z,100471.28
2022-08-25T05:49:29.319Z,100460.59
2022-08-25T05:50:10.268Z,100468.53
2022-08-25T05:50:59.808Z,100464.28
2022-08-25T05:51:41.285Z,100468.94
2022-08-25T05:52:21.410Z,100454.16
2022-08-25T05:53:01.274Z,100463.44
2022-08-25T05:53:41.641Z,100466.84
2022-08-25T05:54:21.295Z,100444.31
2022-08-25T05:55:01.395Z,100458.31
2022-08-25T05:55:42.303Z,100455.38
2022-08-25T05:56:22.338Z,100471.28
2022-08-25T05:57:03.273Z,100459.59
2022-08-25T05:57:44.327Z,100468.94
2022-08-25T05:58:25.281Z,100469.59
2022-08-25T05:59:09.260Z,100473.19
2022-08-25T05:59:49.317Z,100458.06
2022-08-25T06:00:29.344Z,100462.50
2022-08-25T06:01:29.321Z,100469.78
2022-08-25T06:02:27.655Z,100464.28
2022-08-25T06:03:08.261Z,100457.63
2022-08-25T06:03:48.423Z,100476.50
2022-08-25T06:04:29.331Z,100468.66
2022-08-25T06:05:09.299Z,100468.66
2022-08-25T06:05:43.338Z,100457.84
2022-08-25T06:06:31.273Z,100465.72
2022-08-25T06:07:05.441Z,100469.97
2022-08-25T06:07:54.276Z,100465.13
2022-08-25T06:08:32.225Z,100465.41
2022-08-25T06:09:19.260Z,100460.09
2022-08-25T06:09:53.632Z,100462.66
2022-08-25T06:10:34.264Z,100462.50
2022-08-25T06:11:14.387Z,100472.44
2022-08-25T06:11:55.587Z,100463.16
2022-08-25T06:12:36.389Z,100452.03
2022-08-25T06:13:16.248Z,100459.13
2022-08-25T06:13:58.332Z,100454.00
2022-08-25T06:14:38.263Z,100456.56
2022-08-25T06:15:22.386Z,100460.03
2022-08-25T06:16:07.360Z,100462.22
2022-08-25T06:16:50.085Z,100458.63
2022-08-25T06:17:31.251Z,100466.09
2022-08-25T06:18:11.340Z,100455.09
2022-08-25T06:18:52.261Z,100456.16
2022-08-25T06:19:32.325Z,100466.72
2022-08-25T06:20:27.245Z,100445.53
2022-08-25T06:21:25.296Z,100452.72
2022-08-25T06:22:19.233Z,100464.63
2022-08-25T06:23:13.250Z,100454.25
2022-08-25T06:24:08.520Z,100462.28
2022-08-25T06:25:06.255Z,100457.03
2022-08-25T06:26:07.265Z,100453.25
2022-08-25T06:26:48.264Z,100472.75
2022-08-25T06:27:31.353Z,100462.38
2022-08-25T06:28:11.246Z,100452.69
2022-08-25T06:28:51.377Z,100460.53
2022-08-25T06:29:32.254Z,100457.16
2022-08-25T06:30:16.357Z,100460.31
2022-08-25T06:30:57.297Z,100459.25
2022-08-25T06:31:37.449Z,100469.44
2022-08-25T06:32:17.269Z,100466.09
2022-08-25T06:32:57.326Z,100453.28
2022-08-25T06:33:38.271Z,100454.59
2022-08-25T06:34:19.416Z,100456.03
2022-08-25T06:35:05.268Z,100460.53
2022-08-25T06:35:49.305Z,100457.88
2022-08-25T06:36:29.213Z,100463.63
2022-08-25T06:37:09.337Z,100466.16
2022-08-25T06:37:50.348Z,100460.66
2022-08-25T06:38:31.632Z,100466.78
2022-08-25T06:39:12.230Z,100469.59
2022-08-25T06:39:52.377Z,100472.56
2022-08-25T06:40:33.337Z,100455.78
2022-08-25T06:41:16.667Z,100459.66
2022-08-25T06:42:01.219Z,100462.19
2022-08-25T06:42:41.288Z,100464.81
2022-08-25T06:43:22.237Z,100463.75
2022-08-25T06:44:05.049Z,100454.00
2022-08-25T06:44:46.265Z,100446.41
2022-08-25T06:45:26.342Z,100462.31
2022-08-25T06:46:35.611Z,100454.03
2022-08-25T06:47:17.808Z,100458.03
2022-08-25T06:47:59.429Z,100458.75
2022-08-25T06:48:41.252Z,100465.94
2022-08-25T06:49:15.369Z,100463.19
2022-08-25T06:50:02.259Z,100460.91
2022-08-25T06:50:36.326Z,100472.34
2022-08-25T06:51:26.259Z,100463.47
2022-08-25T06:52:00.320Z,100470.19
2022-08-25T06:52:47.208Z,100463.03
2022-08-25T06:53:21.316Z,100455.56
2022-08-25T06:54:02.329Z,100458.59
2022-08-25T06:54:43.302Z,100454.38
2022-08-25T06:55:24.228Z,100457.97
2022-08-25T06:56:06.765Z,100471.38
2022-08-25T06:56:49.581Z,100473.09
2022-08-25T06:57:44.218Z,100458.84
2022-08-25T06:58:39.215Z,100476.25
2022-08-25T06:59:26.276Z,100465.69
2022-08-25T07:00:07.375Z,100461.03
2022-08-25T07:00:54.336Z,100472.50
2022-08-25T07:01:32.484Z,100467.41
2022-08-25T07:02:22.246Z,100478.44
2022-08-25T07:02:56.937Z,100476.31
2022-08-25T07:03:45.229Z,100478.03
2022-08-25T07:04:19.320Z,100477.66
2022-08-25T07:05:00.242Z,100460.47
2022-08-25T07:05:43.785Z,100470.44
2022-08-25T07:06:25.223Z,100481.47
2022-08-25T07:07:05.310Z,100467.50
2022-08-25T07:07:46.205Z,100479.38
2022-08-25T07:08:27.271Z,100477.69
2022-08-25T07:09:11.219Z,100476.84
2022-08-25T07:09:51.318Z,100475.16
2022-08-25T07:10:32.242Z,100482.75
2022-08-25T07:11:17.379Z,100483.03
2022-08-25T07:11:59.207Z,100481.97
2022-08-25T07:12:39.316Z,100478.56
2022-08-25T07:13:20.185Z,100471.59
2022-08-25T07:14:00.313Z,100480.28
2022-08-25T07:14:53.405Z,100478.59
2022-08-25T07:15:45.292Z,100490.09
2022-08-25T07:16:40.342Z,100481.44
2022-08-25T07:17:36.240Z,100479.94
2022-08-25T07:18:30.225Z,100476.56
2022-08-25T07:19:27.217Z,100485.03
2022-08-25T07:20:08.716Z,100483.31
2022-08-25T07:21:03.223Z,100477.19
2022-08-25T07:21:41.318Z,100472.13
2022-08-25T07:22:30.212Z,100476.13
2022-08-25T07:23:04.112Z,100485.91
2022-08-25T07:23:52.217Z,100496.53
2022-08-25T07:24:26.232Z,100479.13
2022-08-25T07:25:13.229Z,100484.22
2022-08-25T07:25:47.862Z,100492.06
2022-08-25T07:26:39.414Z,100486.78
2022-08-25T07:27:14.287Z,100478.28
2022-08-25T07:27:47.931Z,100475.53
2022-08-25T07:28:30.177Z,100489.75
2022-08-25T07:29:05.354Z,100471.09
2022-08-25T07:29:42.361Z,100494.03
2022-08-25T07:30:24.244Z,100485.94
2022-08-25T07:31:00.960Z,100481.31
2022-08-25T07:31:41.343Z,100496.34
2022-08-25T07:32:21.249Z,100489.16
2022-08-25T07:33:05.899Z,100488.09
2022-08-25T07:34:07.019Z,100492.13
2022-08-25T07:35:08.261Z,100492.13
2022-08-25T07:35:49.288Z,100490.66
2022-08-25T07:36:30.225Z,100480.47
2022-08-25T07:37:17.334Z,100485.16
2022-08-25T07:38:02.863Z,100474.13
2022-08-25T07:38:37.877Z,100489.00
2022-08-25T07:39:22.012Z,100485.19
2022-08-25T07:39:56.368Z,100487.75
2022-08-25T07:40:35.180Z,100492.41
2022-08-25T07:41:15.190Z,100491.13
2022-08-25T07:41:52.347Z,100464.41
2022-08-25T07:42:34.237Z,100492.59
2022-08-25T07:43:15.306Z,100490.69
2022-08-25T07:43:55.216Z,100486.66
2022-08-25T07:44:36.276Z,100486.44
2022-08-25T07:45:21.021Z,100493.25
2022-08-25T07:46:01.281Z,100494.50
2022-08-25T07:46:41.184Z,100487.31
2022-08-25T07:47:23.252Z,100489.88
2022-08-25T07:48:09.191Z,100483.06
2022-08-25T07:48:53.391Z,100482.22
2022-08-25T07:49:36.058Z,100498.34
2022-08-25T07:50:21.511Z,100485.41
2022-08-25T07:51:05.509Z,100491.97
2022-08-25T07:52:04.039Z,100490.06
2022-08-25T07:52:52.201Z,100494.09
2022-08-25T07:53:35.220Z,100486.88
2022-08-25T07:54:09.287Z,100487.31
2022-08-25T07:54:43.466Z,100491.97
2022-08-25T07:55:28.190Z,100495.59
2022-08-25T07:56:43.116Z,100488.56
2022-08-25T07:57:25.154Z,100491.13
2022-08-25T07:58:03.444Z,100495.13
2022-08-25T07:58:45.255Z,100481.78
2022-08-25T07:59:25.222Z,100480.91
2022-08-25T08:00:07.161Z,100491.94
2022-08-25T08:00:49.448Z,100490.03
2022-08-25T08:01:32.180Z,100491.53
2022-08-25T08:02:19.523Z,100486.00
2022-08-25T08:03:00.262Z,100491.50
2022-08-25T08:03:52.303Z,100493.22
2022-08-25T08:04:26.219Z,100486.63
2022-08-25T08:05:13.165Z,100496.19
2022-08-25T08:05:47.442Z,100488.53
2022-08-25T08:06:38.148Z,100478.81
2022-08-25T08:07:12.362Z,100497.44
2022-08-25T08:07:59.152Z,100490.66
2022-08-25T08:08:34.001Z,100494.91
2022-08-25T08:09:17.196Z,100479.84
2022-08-25T08:10:05.307Z,100490.88
2022-08-25T08:11:04.175Z,100494.69
2022-08-25T08:11:53.927Z,100495.28
2022-08-25T08:12:28.296Z,100488.94
2022-08-25T08:13:02.266Z,100474.50
2022-08-25T08:13:42.162Z,100490.19
2022-08-25T08:14:17.517Z,100487.41
2022-08-25T08:15:00.188Z,100485.91
2022-08-25T08:15:41.281Z,100484.88
2022-08-25T08:16:24.240Z,100480.63
2022-08-25T08:17:04.232Z,100476.81
2022-08-25T08:17:46.167Z,100481.28
2022-08-25T08:18:29.237Z,100479.56